Terminal Aerodrome Forecast
Issued by NWS Sterling, VA

Home | Current Version | Previous Version | Text Only | Print | Product List | Glossary On
Versions: 1 2 3 4 5 6 7 8 9 10 11 12 13 14 15 16
755
FTUS41 KLWX 122335
TAFMRB
TAF
KMRB 122335Z 1300/1324 27004KT 3SM -SHSN SCT010 OVC030
      TEMPO 1300/1302 1SM -SHSN
     FM130200 27005KT P6SM SCT040 BKN050
     FM130500 28009KT P6SM SCT040 BKN050
     FM130800 31018G37KT P6SM FEW040 SCT080
     FM131900 30019G31KT P6SM SCT045 BKN060=

USA.gov is the U.S. government's official web portal to all federal, state and local government web resources and services.